Time;durP1;ratioP1;P1;durP2;ratioP2;P2;SDS_P1;SDS_P2;PMS_P1;PMS_P2;Temp;Humidity;BMP_temperature;BMP_pressure;BME280_temperature;BME280_humidity;BME280_pressure;Samples;Min_cycle;Max_cycle;Signal;HPM_P1;HPM_P2
2023/10/16 00:00:30;;;;;;;5.75;2.92;;;;;;;;;;5055794;27;99912;-73
2023/10/16 00:02:59;;;;;;;6.80;3.40;;;;;;;;;;5050078;27;100570;-73
2023/10/16 00:05:29;;;;;;;8.82;3.00;;;;;;;;;;5057715;27;99062;-73
2023/10/16 00:07:56;;;;;;;2.40;1.98;;;;;;;;;;5051511;27;99674;-73
2023/10/16 00:10:26;;;;;;;6.03;1.95;;;;;;;;;;5051495;27;99971;-73
2023/10/16 00:12:52;;;;;;;2.30;1.50;;;;;;;;;;5054229;27;100208;-72
2023/10/16 00:15:19;;;;;;;1.75;1.30;;;;;;;;;;5051826;27;98234;-72
2023/10/16 00:17:45;;;;;;;4.45;1.35;;;;;;;;;;5053903;27;99987;-73
2023/10/16 00:20:14;;;;;;;6.47;1.67;;;;;;;;;;5054841;27;99916;-74
2023/10/16 00:22:43;;;;;;;3.55;1.33;;;;;;;;;;5056041;27;98826;-72
2023/10/16 00:25:10;;;;;;;5.10;1.35;;;;;;;;;;5054069;27;101392;-72
2023/10/16 00:27:40;;;;;;;4.65;1.40;;;;;;;;;;5055276;27;99816;-73
2023/10/16 00:30:08;;;;;;;2.83;1.58;;;;;;;;;;5051954;27;99403;-74
2023/10/16 00:32:36;;;;;;;2.25;0.85;;;;;;;;;;5050056;27;99021;-72
2023/10/16 00:35:03;;;;;;;5.95;1.35;;;;;;;;;;5053054;27;99597;-72
2023/10/16 00:37:32;;;;;;;6.45;1.60;;;;;;;;;;5054125;27;99935;-72
2023/10/16 00:39:59;;;;;;;5.47;1.45;;;;;;;;;;5053499;27;99670;-73
2023/10/16 00:42:25;;;;;;;3.70;1.33;;;;;;;;;;5052886;27;98334;-73
2023/10/16 00:44:55;;;;;;;3.30;1.15;;;;;;;;;;5053497;27;99298;-73
2023/10/16 00:47:22;;;;;;;5.07;1.67;;;;;;;;;;5053331;27;98282;-72
2023/10/16 00:49:49;;;;;;;4.13;1.30;;;;;;;;;;5054833;27;98663;-73
2023/10/16 00:52:18;;;;;;;4.20;2.10;;;;;;;;;;5054842;27;100118;-73
2023/10/16 00:54:46;;;;;;;6.22;1.67;;;;;;;;;;5055069;27;100023;-72
2023/10/16 00:57:13;;;;;;;4.60;0.98;;;;;;;;;;5054428;27;99506;-73
2023/10/16 00:59:41;;;;;;;5.63;1.25;;;;;;;;;;5055355;27;99366;-72
2023/10/16 01:04:37;;;;;;;6.95;1.23;;;;;;;;;;5050219;27;99422;-71
2023/10/16 01:07:07;;;;;;;5.03;1.67;;;;;;;;;;5054126;27;100016;-73
2023/10/16 01:09:36;;;;;;;6.15;2.05;;;;;;;;;;5054312;27;100291;-72
2023/10/16 01:12:06;;;;;;;2.80;0.93;;;;;;;;;;5051661;27;100082;-72
2023/10/16 01:14:38;;;;;;;8.00;1.25;;;;;;;;;;5054934;27;98769;-73
2023/10/16 01:17:08;;;;;;;2.45;1.27;;;;;;;;;;5056854;27;100230;-72
2023/10/16 01:19:36;;;;;;;12.32;2.13;;;;;;;;;;5051864;27;99637;-72
2023/10/16 01:22:03;;;;;;;2.78;1.25;;;;;;;;;;5055578;27;98379;-73
2023/10/16 01:24:30;;;;;;;4.55;1.50;;;;;;;;;;5051043;27;99841;-72
2023/10/16 01:27:06;;;;;;;6.90;1.90;;;;;;;;;;5045768;27;100365;-73
2023/10/16 01:29:33;;;;;;;4.13;1.27;;;;;;;;;;5055671;27;98246;-72
2023/10/16 01:32:00;;;;;;;1.95;1.20;;;;;;;;;;5051287;27;100148;-72
2023/10/16 01:34:31;;;;;;;4.68;1.38;;;;;;;;;;5056399;27;98863;-72
2023/10/16 01:37:04;;;;;;;5.95;1.27;;;;;;;;;;5054070;27;99100;-72
2023/10/16 01:39:49;;;;;;;7.32;1.50;;;;;;;;;;5052160;27;99543;-73
2023/10/16 01:42:18;;;;;;;7.03;1.55;;;;;;;;;;5054634;27;100336;-72
2023/10/16 01:44:44;;;;;;;12.50;1.77;;;;;;;;;;5050993;27;99342;-72
2023/10/16 01:47:16;;;;;;;2.08;1.48;;;;;;;;;;5051183;27;99613;-72
2023/10/16 01:49:43;;;;;;;5.82;1.83;;;;;;;;;;5052685;27;98386;-72
2023/10/16 01:52:13;;;;;;;7.45;2.10;;;;;;;;;;5051840;27;100328;-72
2023/10/16 01:54:42;;;;;;;11.93;2.28;;;;;;;;;;5047487;27;99832;-73
2023/10/16 01:57:12;;;;;;;6.40;2.55;;;;;;;;;;5050275;27;99791;-72
2023/10/16 01:59:40;;;;;;;3.03;1.70;;;;;;;;;;5050943;27;100638;-73
2023/10/16 02:02:09;;;;;;;2.50;2.05;;;;;;;;;;5052581;27;99170;-73
2023/10/16 02:04:37;;;;;;;4.53;1.80;;;;;;;;;;5078455;27;100082;-71
2023/10/16 02:07:04;;;;;;;16.23;2.60;;;;;;;;;;5076782;27;100325;-72
2023/10/16 02:09:31;;;;;;;9.25;2.03;;;;;;;;;;5048813;27;98837;-72
2023/10/16 02:12:01;;;;;;;13.00;1.88;;;;;;;;;;5053817;27;99830;-72
2023/10/16 02:14:27;;;;;;;7.03;1.98;;;;;;;;;;5051327;27;98933;-72
2023/10/16 02:16:54;;;;;;;1.60;1.50;;;;;;;;;;5052792;27;100805;-72
2023/10/16 02:19:20;;;;;;;4.95;1.85;;;;;;;;;;5052083;27;99943;-72
2023/10/16 02:21:49;;;;;;;2.72;1.95;;;;;;;;;;5055336;27;98897;-72
2023/10/16 02:24:16;;;;;;;3.60;1.65;;;;;;;;;;5051876;27;101239;-73
2023/10/16 02:27:02;;;;;;;7.22;1.50;;;;;;;;;;5062409;27;99213;-73
2023/10/16 02:29:31;;;;;;;1.38;1.27;;;;;;;;;;5060168;27;99152;-73
2023/10/16 02:31:58;;;;;;;3.60;2.03;;;;;;;;;;5060557;27;99067;-71
2023/10/16 02:34:26;;;;;;;2.53;2.28;;;;;;;;;;5058813;27;99625;-72
2023/10/16 02:36:54;;;;;;;5.10;1.85;;;;;;;;;;5057060;27;99444;-75
2023/10/16 02:39:37;;;;;;;4.53;1.65;;;;;;;;;;5052723;27;99788;-71
2023/10/16 02:42:14;;;;;;;3.33;1.42;;;;;;;;;;5066153;27;100283;-71
2023/10/16 02:44:45;;;;;;;7.20;1.45;;;;;;;;;;5057735;27;98727;-73
2023/10/16 02:47:19;;;;;;;5.82;1.98;;;;;;;;;;5054250;27;99538;-73
2023/10/16 02:49:48;;;;;;;5.30;2.20;;;;;;;;;;5055927;27;100091;-72
2023/10/16 02:52:19;;;;;;;3.20;1.75;;;;;;;;;;5054795;27;100840;-72
2023/10/16 02:54:46;;;;;;;3.85;1.30;;;;;;;;;;5053221;27;99860;-73
2023/10/16 02:57:14;;;;;;;4.03;1.77;;;;;;;;;;5057149;27;98218;-74
2023/10/16 02:59:44;;;;;;;10.07;1.95;;;;;;;;;;5051941;27;99573;-72
2023/10/16 03:02:25;;;;;;;5.07;1.95;;;;;;;;;;5054747;27;100102;-73
2023/10/16 03:04:56;;;;;;;3.35;1.67;;;;;;;;;;5052788;27;99728;-72
2023/10/16 03:07:25;;;;;;;6.28;1.80;;;;;;;;;;5057956;27;101974;-72
2023/10/16 03:09:52;;;;;;;7.00;2.75;;;;;;;;;;5055993;27;98910;-72
2023/10/16 03:12:21;;;;;;;1.20;1.20;;;;;;;;;;5051036;27;100383;-73
2023/10/16 03:14:58;;;;;;;5.82;1.88;;;;;;;;;;5054849;27;100342;-72
2023/10/16 03:17:26;;;;;;;3.47;1.38;;;;;;;;;;5048927;27;99974;-73
2023/10/16 03:19:55;;;;;;;4.53;1.70;;;;;;;;;;5057435;27;99524;-73
2023/10/16 03:22:22;;;;;;;10.05;2.10;;;;;;;;;;5053831;27;100178;-73
2023/10/16 03:24:49;;;;;;;5.97;2.17;;;;;;;;;;5061529;27;98342;-72
2023/10/16 03:27:28;;;;;;;3.42;1.92;;;;;;;;;;5052946;27;100477;-71
2023/10/16 03:29:57;;;;;;;2.50;2.03;;;;;;;;;;5054325;27;99155;-71
2023/10/16 03:32:28;;;;;;;2.63;1.75;;;;;;;;;;5048792;27;101504;-72
2023/10/16 03:34:57;;;;;;;8.98;1.90;;;;;;;;;;5058215;27;98879;-72
2023/10/16 03:37:25;;;;;;;5.72;1.67;;;;;;;;;;5053626;27;100960;-72
2023/10/16 03:39:56;;;;;;;2.10;1.50;;;;;;;;;;5054846;27;98542;-72
2023/10/16 03:42:23;;;;;;;5.18;2.08;;;;;;;;;;5058916;27;99916;-72
2023/10/16 03:44:49;;;;;;;4.72;1.50;;;;;;;;;;5052540;27;100048;-72
2023/10/16 03:47:16;;;;;;;5.63;1.92;;;;;;;;;;5057040;27;99801;-73
2023/10/16 03:49:46;;;;;;;3.38;1.92;;;;;;;;;;5053548;27;98903;-71
2023/10/16 03:52:12;;;;;;;4.38;1.50;;;;;;;;;;5051393;27;98653;-73
2023/10/16 03:54:39;;;;;;;3.08;1.67;;;;;;;;;;5050197;27;99326;-73
2023/10/16 03:57:13;;;;;;;4.63;1.48;;;;;;;;;;5050177;27;98942;-72
2023/10/16 03:59:43;;;;;;;2.05;1.35;;;;;;;;;;5056266;27;99377;-72
2023/10/16 04:02:17;;;;;;;2.28;1.20;;;;;;;;;;5059085;27;99741;-73
2023/10/16 04:04:43;;;;;;;1.67;1.45;;;;;;;;;;5053863;27;99932;-72
2023/10/16 04:07:13;;;;;;;2.45;2.00;;;;;;;;;;5052005;27;99569;-72
2023/10/16 04:09:49;;;;;;;3.83;2.13;;;;;;;;;;5055467;27;99916;-73
2023/10/16 04:12:21;;;;;;;2.05;1.15;;;;;;;;;;5051411;27;98909;-73
2023/10/16 04:14:55;;;;;;;2.30;1.17;;;;;;;;;;5053007;27;100003;-73
2023/10/16 04:17:34;;;;;;;2.15;1.08;;;;;;;;;;5053473;27;100038;-72
2023/10/16 04:20:42;;;;;;;3.13;2.03;;;;;;;;;;5055930;27;98757;-73
2023/10/16 04:22:57;;;;;;;1.83;1.73;;;;;;;;;;5056213;27;99762;-73
2023/10/16 04:25:32;;;;;;;9.02;1.70;;;;;;;;;;5059180;27;99584;-73
2023/10/16 04:28:18;;;;;;;6.03;1.80;;;;;;;;;;5055075;27;100128;-74
2023/10/16 04:30:47;;;;;;;3.05;1.60;;;;;;;;;;5056302;27;99521;-72
2023/10/16 04:33:23;;;;;;;1.67;1.52;;;;;;;;;;5060965;27;100019;-73
2023/10/16 04:38:53;;;;;;;2.85;1.58;;;;;;;;;;5061574;27;99291;-73
2023/10/16 04:46:54;;;;;;;3.97;1.98;;;;;;;;;;5058392;27;99878;-73
2023/10/16 04:49:16;;;;;;;2.55;1.50;;;;;;;;;;5067732;27;99154;-73
2023/10/16 04:51:52;;;;;;;2.53;1.60;;;;;;;;;;5056321;27;99667;-72
2023/10/16 04:54:58;;;;;;;2.95;1.33;;;;;;;;;;5061119;27;100201;-73
2023/10/16 05:00:00;;;;;;;2.08;1.15;;;;;;;;;;5052370;27;100435;-73
2023/10/16 05:02:33;;;;;;;5.07;1.67;;;;;;;;;;5054141;27;98936;-73
2023/10/16 05:07:53;;;;;;;6.95;2.15;;;;;;;;;;5058062;27;99730;-72
2023/10/16 05:10:51;;;;;;;5.53;1.60;;;;;;;;;;5051313;27;100473;-72
2023/10/16 05:18:48;;;;;;;7.68;1.55;;;;;;;;;;5053476;27;99979;-72
2023/10/16 06:16:23;;;;;;;2.80;1.63;;;;;;;;;;5049303;27;98728;-72
2023/10/16 06:18:49;;;;;;;5.05;1.88;;;;;;;;;;5056063;27;99015;-71
2023/10/16 06:21:16;;;;;;;5.03;1.60;;;;;;;;;;5052193;27;99967;-71
2023/10/16 06:23:43;;;;;;;4.15;1.77;;;;;;;;;;5069956;27;98711;-71
2023/10/16 06:26:09;;;;;;;4.28;1.88;;;;;;;;;;5070628;27;98262;-71
2023/10/16 06:28:47;;;;;;;5.57;1.95;;;;;;;;;;5045758;27;100002;-74
2023/10/16 06:31:22;;;;;;;1.40;1.30;;;;;;;;;;5065957;27;99057;-70
2023/10/16 06:33:53;;;;;;;2.05;1.42;;;;;;;;;;5052327;27;98661;-72
2023/10/16 06:36:20;;;;;;;2.90;1.85;;;;;;;;;;5048108;27;98608;-71
2023/10/16 06:38:51;;;;;;;1.67;1.58;;;;;;;;;;5049487;27;99899;-72
2023/10/16 06:41:18;;;;;;;6.22;2.10;;;;;;;;;;5049296;27;98181;-72
2023/10/16 06:43:47;;;;;;;4.00;2.00;;;;;;;;;;5048805;27;99366;-72
2023/10/16 06:46:21;;;;;;;4.57;1.98;;;;;;;;;;5052224;27;98900;-71
2023/10/16 06:48:49;;;;;;;4.78;1.95;;;;;;;;;;5049774;27;98752;-72
2023/10/16 06:51:15;;;;;;;9.30;2.28;;;;;;;;;;5048395;27;99222;-71
2023/10/16 06:53:45;;;;;;;4.40;2.05;;;;;;;;;;5049827;27;98639;-71
2023/10/16 06:56:14;;;;;;;2.50;2.30;;;;;;;;;;5049431;27;98703;-71
2023/10/16 06:58:41;;;;;;;7.45;2.20;;;;;;;;;;5047366;27;99088;-70
2023/10/16 07:01:07;;;;;;;4.13;2.38;;;;;;;;;;5062699;27;98265;-72
2023/10/16 07:03:34;;;;;;;2.10;2.00;;;;;;;;;;5069004;27;98799;-73
2023/10/16 07:06:00;;;;;;;5.90;2.50;;;;;;;;;;5070269;27;99164;-69
2023/10/16 07:08:30;;;;;;;11.00;3.25;;;;;;;;;;5070212;27;99549;-72
2023/10/16 07:10:56;;;;;;;5.57;2.70;;;;;;;;;;5072476;27;100116;-69
2023/10/16 07:13:31;;;;;;;3.95;2.28;;;;;;;;;;5071364;27;98369;-71
2023/10/16 07:16:01;;;;;;;3.67;2.50;;;;;;;;;;5063670;27;99359;-72
2023/10/16 07:18:29;;;;;;;6.53;2.53;;;;;;;;;;5077897;27;99310;-72
2023/10/16 07:20:59;;;;;;;3.70;2.38;;;;;;;;;;5072565;27;98683;-72
2023/10/16 07:23:29;;;;;;;3.60;3.30;;;;;;;;;;5068732;27;99024;-72
2023/10/16 07:25:56;;;;;;;2.88;1.70;;;;;;;;;;5068457;27;100274;-72
2023/10/16 07:28:22;;;;;;;4.43;2.42;;;;;;;;;;5069451;27;98491;-72
2023/10/16 07:30:51;;;;;;;3.15;1.98;;;;;;;;;;5070192;27;98212;-72
2023/10/16 07:33:20;;;;;;;15.50;2.20;;;;;;;;;;5068093;27;98571;-72
2023/10/16 07:35:48;;;;;;;2.25;1.70;;;;;;;;;;5069129;27;99713;-72
2023/10/16 07:38:19;;;;;;;3.97;2.10;;;;;;;;;;5068538;27;100662;-72
2023/10/16 07:40:52;;;;;;;5.07;2.15;;;;;;;;;;5068683;27;99253;-71
2023/10/16 07:43:28;;;;;;;6.45;2.05;;;;;;;;;;5068552;27;99522;-72
2023/10/16 07:48:56;;;;;;;5.22;1.80;;;;;;;;;;5024025;27;98299;-71
2023/10/16 07:51:26;;;;;;;2.10;1.75;;;;;;;;;;5048507;27;98579;-71
2023/10/16 07:53:53;;;;;;;14.40;2.42;;;;;;;;;;5051086;27;100406;-71
2023/10/16 07:56:28;;;;;;;2.95;1.60;;;;;;;;;;5048287;27;98996;-71
2023/10/16 07:58:56;;;;;;;5.38;1.73;;;;;;;;;;5048143;27;99368;-71
2023/10/16 08:01:36;;;;;;;3.83;2.00;;;;;;;;;;5062625;27;98446;-71
2023/10/16 08:04:05;;;;;;;4.00;1.83;;;;;;;;;;5068100;27;98621;-71
2023/10/16 08:06:33;;;;;;;5.60;1.63;;;;;;;;;;5059514;27;100221;-71
2023/10/16 08:11:44;;;;;;;6.57;2.08;;;;;;;;;;5047916;27;99687;-71
2023/10/16 08:14:11;;;;;;;3.70;1.60;;;;;;;;;;5049364;27;99087;-72
2023/10/16 08:16:39;;;;;;;4.70;1.60;;;;;;;;;;5048031;27;98882;-71
2023/10/16 08:19:14;;;;;;;1.52;1.42;;;;;;;;;;5047907;27;99253;-72
2023/10/16 08:21:44;;;;;;;4.55;1.70;;;;;;;;;;5050622;27;98414;-71
2023/10/16 08:24:13;;;;;;;3.50;1.60;;;;;;;;;;5066705;27;98621;-71
2023/10/16 08:26:44;;;;;;;3.65;1.60;;;;;;;;;;5068190;27;100297;-71
2023/10/16 08:31:47;;;;;;;6.70;1.88;;;;;;;;;;5056193;27;99513;-71
2023/10/16 08:34:19;;;;;;;1.88;1.50;;;;;;;;;;5057915;27;99603;-72
2023/10/16 08:36:52;;;;;;;1.50;1.23;;;;;;;;;;5049931;27;99317;-70
2023/10/16 08:39:19;;;;;;;;;;;;;;;;;;5054156;27;98969;-71
2023/10/16 08:41:51;;;;;;;2.53;1.42;;;;;;;;;;5066877;27;125499;-71
2023/10/16 08:44:18;;;;;;;4.43;1.58;;;;;;;;;;5066419;27;99074;-71
2023/10/16 08:46:45;;;;;;;4.63;1.30;;;;;;;;;;5067479;27;98991;-71
2023/10/16 08:49:12;;;;;;;1.55;1.38;;;;;;;;;;5066112;27;99657;-71
2023/10/16 08:51:39;;;;;;;1.10;1.08;;;;;;;;;;5057771;27;99441;-71
2023/10/16 08:54:35;;;;;;;1.10;1.00;;;;;;;;;;5047466;27;98900;-71
2023/10/16 08:56:54;;;;;;;8.38;1.48;;;;;;;;;;5047899;27;98540;-71
2023/10/16 08:59:24;;;;;;;6.78;1.40;;;;;;;;;;5050214;27;99973;-71
2023/10/16 09:01:53;;;;;;;2.22;1.67;;;;;;;;;;5066490;27;98259;-71
2023/10/16 09:04:23;;;;;;;4.45;1.92;;;;;;;;;;5065340;27;98506;-72
2023/10/16 09:06:50;;;;;;;4.30;1.27;;;;;;;;;;5067330;27;99865;-72
2023/10/16 09:09:17;;;;;;;1.40;1.30;;;;;;;;;;5067623;27;98485;-71
2023/10/16 09:11:45;;;;;;;1.75;1.15;;;;;;;;;;5087296;27;99475;-72
2023/10/16 09:14:13;;;;;;;2.38;1.35;;;;;;;;;;5086985;27;99518;-72
2023/10/16 09:16:44;;;;;;;5.57;1.50;;;;;;;;;;5087765;27;98229;-73
2023/10/16 09:19:11;;;;;;;2.53;1.27;;;;;;;;;;5087629;27;99538;-72
2023/10/16 09:21:39;;;;;;;4.80;1.42;;;;;;;;;;5076471;27;99144;-71
2023/10/16 09:24:05;;;;;;;4.05;1.30;;;;;;;;;;5067527;27;98913;-71
2023/10/16 09:26:33;;;;;;;2.35;1.52;;;;;;;;;;5066135;27;99333;-70
2023/10/16 09:29:05;;;;;;;2.65;1.17;;;;;;;;;;5066174;27;98254;-71
2023/10/16 09:31:31;;;;;;;5.43;1.40;;;;;;;;;;5086849;27;98694;-71
2023/10/16 09:33:58;;;;;;;6.07;1.30;;;;;;;;;;5087578;27;99891;-72
2023/10/16 09:36:29;;;;;;;1.13;1.00;;;;;;;;;;5091209;27;98202;-72
2023/10/16 09:38:59;;;;;;;5.37;1.57;;;;;;;;;;5079678;27;99121;-72
2023/10/16 09:44:09;;;;;;;2.22;1.08;;;;;;;;;;5092010;27;98706;-71
2023/10/16 09:49:09;;;;;;;2.58;1.10;;;;;;;;;;5091176;27;98236;-72
2023/10/16 09:51:35;;;;;;;1.33;0.90;;;;;;;;;;5090903;27;98581;-71
2023/10/16 09:54:08;;;;;;;3.53;1.48;;;;;;;;;;5089691;27;99071;-72
2023/10/16 09:56:39;;;;;;;0.80;0.80;;;;;;;;;;5090719;27;98232;-71
2023/10/16 09:59:17;;;;;;;3.83;1.20;;;;;;;;;;5090492;27;98658;-71
2023/10/16 10:01:44;;;;;;;4.97;1.02;;;;;;;;;;5090083;27;98951;-72
2023/10/16 10:04:11;;;;;;;1.17;1.08;;;;;;;;;;5081297;27;98481;-71
2023/10/16 10:06:39;;;;;;;4.43;1.35;;;;;;;;;;5073658;27;98571;-71
2023/10/16 10:11:56;;;;;;;4.18;0.70;;;;;;;;;;5069722;27;100653;-72
2023/10/16 10:14:26;;;;;;;2.60;1.00;;;;;;;;;;5068025;27;98953;-72
2023/10/16 10:17:00;;;;;;;0.98;0.65;;;;;;;;;;5069461;27;98224;-72
2023/10/16 10:19:36;;;;;;;3.75;1.10;;;;;;;;;;5069289;27;99473;-72
2023/10/16 10:22:06;;;;;;;0.60;0.60;;;;;;;;;;5068322;27;99413;-71
2023/10/16 10:24:35;;;;;;;1.13;1.02;;;;;;;;;;5070257;27;99052;-72
2023/10/16 10:27:11;;;;;;;2.03;0.70;;;;;;;;;;5073750;27;99632;-71
2023/10/16 10:29:43;;;;;;;2.45;1.00;;;;;;;;;;5049294;27;98514;-72
2023/10/16 10:32:13;;;;;;;8.93;0.95;;;;;;;;;;5049211;27;98519;-71
2023/10/16 10:34:40;;;;;;;6.30;1.00;;;;;;;;;;5048966;27;99244;-71
2023/10/16 10:37:25;;;;;;;3.75;0.70;;;;;;;;;;5049082;27;98237;-71
2023/10/16 10:40:05;;;;;;;1.88;0.80;;;;;;;;;;5049732;27;98887;-71
2023/10/16 10:42:38;;;;;;;1.52;0.90;;;;;;;;;;5048424;27;100113;-71
2023/10/16 10:45:21;;;;;;;;;;;;;;;;;;5048959;27;98256;-71
2023/10/16 10:47:48;;;;;;;2.92;1.02;;;;;;;;;;5048002;27;128950;-71
2023/10/16 10:50:14;;;;;;;1.15;0.60;;;;;;;;;;5051439;27;98816;-72
2023/10/16 10:52:43;;;;;;;1.15;0.80;;;;;;;;;;5049765;27;99548;-71
2023/10/16 10:55:19;;;;;;;9.68;0.70;;;;;;;;;;5048998;27;98890;-72
2023/10/16 10:57:47;;;;;;;1.90;1.33;;;;;;;;;;5059043;27;98382;-71
2023/10/16 11:00:43;;;;;;;1.55;0.70;;;;;;;;;;5089867;27;99224;-71
2023/10/16 11:03:18;;;;;;;1.45;0.90;;;;;;;;;;5089334;27;99138;-71
2023/10/16 11:05:45;;;;;;;2.17;0.60;;;;;;;;;;5076154;27;98236;-71
2023/10/16 11:08:35;;;;;;;4.07;0.68;;;;;;;;;;5069297;27;99722;-72
2023/10/16 11:11:03;;;;;;;2.65;0.80;;;;;;;;;;5067345;27;98993;-72
2023/10/16 11:13:30;;;;;;;1.75;0.50;;;;;;;;;;5072018;27;98247;-72
2023/10/16 11:15:58;;;;;;;4.95;0.95;;;;;;;;;;5069169;27;98921;-72
2023/10/16 11:18:29;;;;;;;5.30;1.05;;;;;;;;;;5068195;27;98254;-71
2023/10/16 11:20:59;;;;;;;2.75;0.82;;;;;;;;;;5069625;27;98819;-72
2023/10/16 11:23:25;;;;;;;0.60;0.60;;;;;;;;;;5069350;27;99019;-71
2023/10/16 11:25:54;;;;;;;8.05;0.90;;;;;;;;;;5068942;27;98497;-71
2023/10/16 11:28:21;;;;;;;0.85;0.70;;;;;;;;;;5069603;27;99479;-72
2023/10/16 11:30:49;;;;;;;1.38;0.70;;;;;;;;;;5068922;27;99925;-72
2023/10/16 11:33:34;;;;;;;1.63;0.68;;;;;;;;;;5067588;27;98403;-72
2023/10/16 11:36:06;;;;;;;4.90;0.90;;;;;;;;;;5070763;27;98678;-72
2023/10/16 11:38:34;;;;;;;1.58;0.95;;;;;;;;;;5067767;27;98484;-72
2023/10/16 11:41:05;;;;;;;3.70;0.82;;;;;;;;;;5068646;27;98631;-72
2023/10/16 11:43:37;;;;;;;2.22;0.68;;;;;;;;;;5068105;27;98965;-72
2023/10/16 11:46:27;;;;;;;;;;;;;;;;;;5068329;27;98259;-72
2023/10/16 11:48:56;;;;;;;1.35;0.70;;;;;;;;;;5065201;27;128846;-71
2023/10/16 11:51:25;;;;;;;2.20;0.82;;;;;;;;;;5068789;27;99945;-71
2023/10/16 11:54:02;;;;;;;1.75;0.82;;;;;;;;;;5068937;27;98244;-72
2023/10/16 11:56:34;;;;;;;1.67;0.75;;;;;;;;;;5068722;27;99135;-72
2023/10/16 11:59:03;;;;;;;5.18;0.95;;;;;;;;;;5052817;27;98104;-71
2023/10/16 12:01:30;;;;;;;2.90;1.00;;;;;;;;;;5045966;27;98771;-72
2023/10/16 12:04:19;;;;;;;3.00;1.00;;;;;;;;;;5047783;27;98860;-72
2023/10/16 12:06:48;;;;;;;4.68;1.02;;;;;;;;;;5056742;27;98296;-72
2023/10/16 12:09:19;;;;;;;1.70;0.80;;;;;;;;;;5067936;27;98611;-73
2023/10/16 12:11:49;;;;;;;3.05;1.33;;;;;;;;;;5068196;27;99985;-71
2023/10/16 12:14:19;;;;;;;1.95;0.85;;;;;;;;;;5067158;27;98247;-72
2023/10/16 12:16:46;;;;;;;2.60;1.02;;;;;;;;;;5068210;27;99660;-71
2023/10/16 12:19:14;;;;;;;3.72;0.90;;;;;;;;;;5068673;27;99076;-72
2023/10/16 12:21:41;;;;;;;3.72;1.05;;;;;;;;;;5069991;27;98134;-73
2023/10/16 12:24:10;;;;;;;2.50;1.13;;;;;;;;;;5068231;27;99669;-71
2023/10/16 12:26:40;;;;;;;2.55;1.33;;;;;;;;;;5067307;27;98032;-73
2023/10/16 12:29:08;;;;;;;3.35;1.48;;;;;;;;;;5047222;27;99640;-72
2023/10/16 12:31:40;;;;;;;10.05;2.95;;;;;;;;;;5047005;27;98910;-72
2023/10/16 12:34:11;;;;;;;4.15;3.40;;;;;;;;;;5048261;27;99010;-71
2023/10/16 12:36:38;;;;;;;1.52;1.10;;;;;;;;;;5046790;27;99150;-72
2023/10/16 12:39:13;;;;;;;2.85;0.90;;;;;;;;;;5047993;27;99179;-72
2023/10/16 12:41:41;;;;;;;2.03;1.23;;;;;;;;;;5050111;27;98522;-72
2023/10/16 12:44:09;;;;;;;15.30;8.25;;;;;;;;;;5047671;27;98865;-72
2023/10/16 12:46:43;;;;;;;3.88;1.63;;;;;;;;;;5062210;27;98476;-72
2023/10/16 12:49:09;;;;;;;5.30;1.20;;;;;;;;;;5059926;27;98705;-72
2023/10/16 12:51:36;;;;;;;3.42;1.80;;;;;;;;;;5066785;27;99707;-72
2023/10/16 12:54:05;;;;;;;3.40;1.60;;;;;;;;;;5068372;27;98276;-72
2023/10/16 12:56:32;;;;;;;16.08;7.88;;;;;;;;;;5066994;27;100044;-72
2023/10/16 12:58:59;;;;;;;4.25;2.70;;;;;;;;;;5067893;27;100170;-72
2023/10/16 13:01:26;;;;;;;4.38;1.17;;;;;;;;;;5067558;27;98264;-72
2023/10/16 13:03:59;;;;;;;0.93;0.93;;;;;;;;;;5061804;27;98508;-70
2023/10/16 13:06:28;;;;;;;3.55;1.88;;;;;;;;;;5061093;27;98723;-71
2023/10/16 13:08:56;;;;;;;1.20;0.75;;;;;;;;;;5060282;27;98925;-72
2023/10/16 13:11:22;;;;;;;2.88;0.82;;;;;;;;;;5046039;27;100154;-72
2023/10/16 13:13:49;;;;;;;4.00;1.88;;;;;;;;;;5047398;27;98249;-72
2023/10/16 13:16:24;;;;;;;3.90;0.82;;;;;;;;;;5046492;27;98659;-71
2023/10/16 13:18:57;;;;;;;1.92;0.80;;;;;;;;;;5045584;27;99017;-72
2023/10/16 13:21:33;;;;;;;6.13;1.50;;;;;;;;;;5050278;27;99661;-72
2023/10/16 13:24:05;;;;;;;7.40;3.55;;;;;;;;;;5047327;27;100427;-72
2023/10/16 13:26:36;;;;;;;2.22;0.93;;;;;;;;;;5051581;27;99453;-72
2023/10/16 13:29:09;;;;;;;4.45;1.25;;;;;;;;;;5043166;27;98839;-71
2023/10/16 13:31:36;;;;;;;2.28;0.93;;;;;;;;;;5045455;27;99153;-71
2023/10/16 13:34:10;;;;;;;4.97;1.38;;;;;;;;;;5053433;27;98402;-70
2023/10/16 13:36:37;;;;;;;5.22;2.63;;;;;;;;;;5050736;27;99381;-72
2023/10/16 13:39:10;;;;;;;5.47;1.50;;;;;;;;;;5059673;27;100030;-72
2023/10/16 13:41:55;;;;;;;4.65;1.42;;;;;;;;;;5055089;27;98278;-71
2023/10/16 13:44:22;;;;;;;9.93;2.67;;;;;;;;;;5056451;27;98531;-71
2023/10/16 13:46:49;;;;;;;7.18;3.47;;;;;;;;;;5049807;27;100134;-71
2023/10/16 13:49:17;;;;;;;0.70;0.70;;;;;;;;;;5057395;27;99202;-71
2023/10/16 13:51:48;;;;;;;6.53;2.58;;;;;;;;;;5054714;27;99466;-70
2023/10/16 13:54:14;;;;;;;4.35;1.50;;;;;;;;;;5054362;27;98202;-75
2023/10/16 13:56:42;;;;;;;4.80;2.28;;;;;;;;;;5054400;27;99378;-71
2023/10/16 13:59:08;;;;;;;4.30;1.67;;;;;;;;;;5051429;27;99909;-72
2023/10/16 14:01:39;;;;;;;14.88;7.10;;;;;;;;;;5046015;27;98212;-73
2023/10/16 14:04:16;;;;;;;4.22;1.25;;;;;;;;;;5043608;27;99458;-73
2023/10/16 14:06:52;;;;;;;3.65;1.38;;;;;;;;;;5047784;27;100457;-73
2023/10/16 14:09:20;;;;;;;5.70;2.35;;;;;;;;;;5048687;27;99914;-73
2023/10/16 14:11:47;;;;;;;5.97;1.33;;;;;;;;;;5050290;27;100046;-72
2023/10/16 14:14:20;;;;;;;5.80;1.40;;;;;;;;;;5043573;27;100092;-72
2023/10/16 14:16:50;;;;;;;16.67;8.02;;;;;;;;;;5044320;27;99722;-73
2023/10/16 14:19:22;;;;;;;2.35;2.13;;;;;;;;;;5046131;27;98902;-72
2023/10/16 14:21:51;;;;;;;11.93;4.80;;;;;;;;;;5057339;27;98329;-73
2023/10/16 14:24:22;;;;;;;2.10;1.80;;;;;;;;;;5050492;27;99458;-73
2023/10/16 14:26:49;;;;;;;3.97;2.30;;;;;;;;;;5054955;27;100138;-71
2023/10/16 14:29:16;;;;;;;3.10;1.42;;;;;;;;;;5061666;27;98720;-73
2023/10/16 14:31:46;;;;;;;22.35;11.57;;;;;;;;;;5060085;27;99402;-72
2023/10/16 14:34:18;;;;;;;35.28;18.65;;;;;;;;;;5061666;27;98383;-72
2023/10/16 14:36:46;;;;;;;42.45;21.15;;;;;;;;;;5059423;27;99387;-72
2023/10/16 14:39:13;;;;;;;8.25;2.42;;;;;;;;;;5065553;27;98934;-72
2023/10/16 14:41:44;;;;;;;4.95;1.98;;;;;;;;;;5066539;27;99603;-72
2023/10/16 14:44:11;;;;;;;4.22;2.63;;;;;;;;;;5066903;27;99637;-72
2023/10/16 14:46:50;;;;;;;4.72;2.40;;;;;;;;;;5066657;27;100535;-73
2023/10/16 14:49:18;;;;;;;4.75;2.30;;;;;;;;;;5065194;27;98624;-73
2023/10/16 14:51:45;;;;;;;2.03;1.85;;;;;;;;;;5064953;27;98830;-72
2023/10/16 14:54:11;;;;;;;15.60;10.32;;;;;;;;;;5063720;27;99939;-73
2023/10/16 14:56:39;;;;;;;3.08;2.72;;;;;;;;;;5060124;27;99293;-72
2023/10/16 14:59:11;;;;;;;11.77;6.30;;;;;;;;;;5081223;27;99909;-73
2023/10/16 15:01:41;;;;;;;4.63;2.97;;;;;;;;;;5060963;27;98235;-73
2023/10/16 15:04:08;;;;;;;22.25;13.25;;;;;;;;;;5049118;27;98639;-72
2023/10/16 15:06:35;;;;;;;35.47;19.05;;;;;;;;;;5049090;27;99437;-73
2023/10/16 15:09:09;;;;;;;35.13;18.52;;;;;;;;;;5064782;27;98296;-73
2023/10/16 15:11:35;;;;;;;10.15;5.25;;;;;;;;;;5056215;27;99075;-73
2023/10/16 15:14:03;;;;;;;12.40;5.00;;;;;;;;;;5050087;27;99722;-73
2023/10/16 15:16:32;;;;;;;13.15;5.15;;;;;;;;;;5061555;27;98240;-73
2023/10/16 15:19:00;;;;;;;5.47;2.80;;;;;;;;;;5062462;27;99016;-72
2023/10/16 15:21:27;;;;;;;16.77;5.95;;;;;;;;;;5049126;27;99185;-73
2023/10/16 15:23:53;;;;;;;34.97;13.63;;;;;;;;;;5052064;27;98640;-73
2023/10/16 15:26:20;;;;;;;19.58;8.65;;;;;;;;;;5051241;27;99694;-73
2023/10/16 15:28:46;;;;;;;13.02;5.63;;;;;;;;;;5051309;27;98254;-73
2023/10/16 15:31:15;;;;;;;5.60;1.85;;;;;;;;;;5052042;27;99083;-73
2023/10/16 15:33:43;;;;;;;6.75;3.70;;;;;;;;;;5050851;27;98917;-72
2023/10/16 15:36:11;;;;;;;7.60;4.43;;;;;;;;;;5054450;27;100040;-71
2023/10/16 15:38:38;;;;;;;8.68;3.60;;;;;;;;;;5050198;27;99696;-72
2023/10/16 15:41:09;;;;;;;6.45;2.40;;;;;;;;;;5051147;27;98512;-72
2023/10/16 15:43:36;;;;;;;14.45;6.35;;;;;;;;;;5053720;27;99404;-71
2023/10/16 15:46:03;;;;;;;2.88;2.17;;;;;;;;;;5052186;27;99017;-72
2023/10/16 15:48:30;;;;;;;2.13;1.35;;;;;;;;;;5049346;27;99593;-72
2023/10/16 15:50:56;;;;;;;4.72;1.83;;;;;;;;;;5049241;27;99636;-72
2023/10/16 15:53:23;;;;;;;4.70;2.00;;;;;;;;;;5050299;27;98971;-72
2023/10/16 15:55:49;;;;;;;4.07;1.52;;;;;;;;;;5057241;27;98251;-71
2023/10/16 15:58:15;;;;;;;8.75;4.00;;;;;;;;;;5057177;27;98555;-71
2023/10/16 16:00:42;;;;;;;13.52;3.13;;;;;;;;;;5061668;27;100350;-73
2023/10/16 16:03:09;;;;;;;4.78;1.80;;;;;;;;;;5064122;27;99122;-72
2023/10/16 16:05:36;;;;;;;5.13;2.33;;;;;;;;;;5046818;27;100191;-72
2023/10/16 16:08:03;;;;;;;13.05;2.45;;;;;;;;;;5062099;27;98273;-72
2023/10/16 16:10:33;;;;;;;1.70;1.60;;;;;;;;;;5067209;27;99511;-72
2023/10/16 16:13:01;;;;;;;8.15;2.67;;;;;;;;;;5064045;27;99059;-72
2023/10/16 16:15:27;;;;;;;3.28;1.65;;;;;;;;;;5068146;27;98230;-72
2023/10/16 16:17:54;;;;;;;4.95;1.80;;;;;;;;;;5069117;27;98838;-72
2023/10/16 16:20:21;;;;;;;8.70;2.08;;;;;;;;;;5066898;27;99433;-72
2023/10/16 16:22:48;;;;;;;4.10;1.52;;;;;;;;;;5064683;27;98133;-71
2023/10/16 16:25:15;;;;;;;10.48;2.95;;;;;;;;;;5050409;27;99276;-71
2023/10/16 16:27:46;;;;;;;7.28;2.95;;;;;;;;;;5047100;27;98876;-72
2023/10/16 16:30:13;;;;;;;2.70;1.98;;;;;;;;;;5045542;27;100081;-71